Terminal Aerodrome Forecast
Issued by NWS

Home | Current Version | Previous Version | Text Only | Print | Product List | Glossary On
Versions: 1 2 3 4 5 6 7 8 9 10 11 12 13 14 15 16 17 18 19 20 21 22 23 24 25 26 27 28 29
000
FTUS45 KBOU 171734
TAFAPA
TAF
KAPA 171734Z 1718/1818 VRB05KT P6SM FEW070 SCT090 BKN120
     FM172200 03006KT P6SM VCSH SCT030 BKN050 OVC100
     FM180100 12005KT P6SM SCT025 BKN040
      TEMPO 1801/1804 3SM -SN BR BKN020
     FM180600 18005KT P6SM SCT050 BKN100
     FM181400 30005KT P6SM BKN100=

USA.gov is the U.S. government's official web portal to all federal, state and local government web resources and services.